createdAt,value
2019-05-18T00:00:09.917Z,89.10
2019-05-18T00:02:40.819Z,89.20
2019-05-18T00:05:11.247Z,89.20
2019-05-18T00:07:40.552Z,89.40
2019-05-18T00:10:10.275Z,89.80
2019-05-18T00:12:39.661Z,90.00
2019-05-18T00:15:09.734Z,90.00
2019-05-18T00:17:39.021Z,90.10
2019-05-18T00:20:08.644Z,90.20
2019-05-18T00:22:37.942Z,90.30
2019-05-18T00:25:07.905Z,90.30
2019-05-18T00:27:37.195Z,90.40
2019-05-18T00:30:08.035Z,90.40
2019-05-18T00:32:37.430Z,90.50
2019-05-18T00:35:08.026Z,90.50
2019-05-18T00:37:38.390Z,90.50
2019-05-18T00:40:09.211Z,90.60
2019-05-18T00:42:38.491Z,90.60
2019-05-18T00:45:08.331Z,90.60
2019-05-18T00:47:41.266Z,90.60
2019-05-18T00:50:09.130Z,90.70
2019-05-18T00:52:38.407Z,90.80
2019-05-18T00:55:08.549Z,90.80
2019-05-18T00:57:37.859Z,90.80
2019-05-18T01:00:10.851Z,90.80
2019-05-18T01:02:40.194Z,90.90
2019-05-18T01:05:09.823Z,90.90
2019-05-18T01:07:39.116Z,90.90
2019-05-18T01:10:08.984Z,90.90
2019-05-18T01:12:38.291Z,91.30
2019-05-18T01:15:08.242Z,90.90
2019-05-18T01:17:37.586Z,90.90
2019-05-18T01:20:08.096Z,91.00
2019-05-18T01:22:37.381Z,91.00
2019-05-18T01:25:07.019Z,91.00
2019-05-18T01:27:36.362Z,91.00
2019-05-18T01:30:10.012Z,91.10
2019-05-18T01:32:39.332Z,91.20
2019-05-18T01:35:09.261Z,91.30
2019-05-18T01:37:38.595Z,91.40
2019-05-18T01:40:08.823Z,91.40
2019-05-18T01:42:38.103Z,91.40
2019-05-18T01:45:16.871Z,91.50
2019-05-18T01:47:41.651Z,91.50
2019-05-18T01:50:11.003Z,91.40
2019-05-18T01:52:40.278Z,91.40
2019-05-18T01:55:10.125Z,91.40
2019-05-18T01:57:39.395Z,91.40
2019-05-18T02:00:10.338Z,91.50
2019-05-18T02:02:39.607Z,91.50
2019-05-18T02:05:09.332Z,91.50
2019-05-18T02:07:38.614Z,91.60
2019-05-18T02:10:08.149Z,91.70
2019-05-18T02:12:37.415Z,91.70
2019-05-18T02:15:07.804Z,91.70
2019-05-18T02:17:37.106Z,91.70
2019-05-18T02:20:07.806Z,91.80
2019-05-18T02:22:37.095Z,91.80
2019-05-18T02:25:09.307Z,91.90
2019-05-18T02:27:38.645Z,92.00
2019-05-18T02:30:09.391Z,92.00
2019-05-18T02:32:39.783Z,92.00
2019-05-18T02:35:09.317Z,92.40
2019-05-18T02:37:38.595Z,92.10
2019-05-18T02:40:08.093Z,92.20
2019-05-18T02:42:37.379Z,92.20
2019-05-18T02:45:07.599Z,92.20
2019-05-18T02:47:36.882Z,92.20
2019-05-18T02:50:08.090Z,92.30
2019-05-18T02:52:37.414Z,92.30
2019-05-18T02:55:07.395Z,92.30
2019-05-18T02:57:37.721Z,92.30
2019-05-18T03:00:09.437Z,92.30
2019-05-18T03:02:39.708Z,92.40
2019-05-18T03:05:09.927Z,92.40
2019-05-18T03:07:39.214Z,92.50
2019-05-18T03:10:08.932Z,92.60
2019-05-18T03:12:38.212Z,92.60
2019-05-18T03:15:07.823Z,92.70
2019-05-18T03:17:37.192Z,92.70
2019-05-18T03:20:08.767Z,92.70
2019-05-18T03:22:38.063Z,92.80
2019-05-18T03:25:07.773Z,92.90
2019-05-18T03:27:37.067Z,93.00
2019-05-18T03:30:07.645Z,93.00
2019-05-18T03:32:36.935Z,93.00
2019-05-18T03:35:06.445Z,93.00
2019-05-18T03:37:35.726Z,93.00
2019-05-18T03:40:08.171Z,93.10
2019-05-18T03:42:38.427Z,93.10
2019-05-18T03:45:08.145Z,93.10
2019-05-18T03:47:37.427Z,93.10
2019-05-18T03:50:09.141Z,93.10
2019-05-18T03:52:38.429Z,93.10
2019-05-18T03:55:07.687Z,93.20
2019-05-18T03:57:36.992Z,93.30
2019-05-18T04:00:07.812Z,93.30
2019-05-18T04:02:37.160Z,93.30
2019-05-18T04:05:07.171Z,93.40
2019-05-18T04:07:36.489Z,93.40
2019-05-18T04:10:07.877Z,93.40
2019-05-18T04:12:37.180Z,93.40
2019-05-18T04:15:06.998Z,93.80
2019-05-18T04:17:36.291Z,93.50
2019-05-18T04:20:06.302Z,93.50
2019-05-18T04:22:35.591Z,93.50
2019-05-18T04:25:05.715Z,93.50
2019-05-18T04:27:34.995Z,93.50
2019-05-18T04:30:06.991Z,93.50
2019-05-18T04:32:36.264Z,93.60
2019-05-18T04:35:07.396Z,93.60
2019-05-18T04:37:36.672Z,93.50
2019-05-18T04:40:07.506Z,93.50
2019-05-18T04:42:36.780Z,93.60
2019-05-18T04:45:06.614Z,93.60
2019-05-18T04:47:35.883Z,93.50
2019-05-18T04:50:07.200Z,93.50
2019-05-18T04:52:36.547Z,93.50
2019-05-18T04:55:07.271Z,93.80
2019-05-18T04:57:36.575Z,93.40
2019-05-18T05:00:08.273Z,93.30
2019-05-18T05:02:38.526Z,93.30
2019-05-18T05:05:07.912Z,93.20
2019-05-18T05:07:37.232Z,93.20
2019-05-18T05:10:07.951Z,93.10
2019-05-18T05:12:37.223Z,93.10
2019-05-18T05:15:06.683Z,93.10
2019-05-18T05:17:35.958Z,93.10
2019-05-18T05:20:18.832Z,93.10
2019-05-18T05:22:37.467Z,93.10
2019-05-18T05:25:06.835Z,93.10
2019-05-18T05:27:36.112Z,93.00
2019-05-18T05:30:07.111Z,93.00
2019-05-18T05:32:37.466Z,93.10
2019-05-18T05:35:07.398Z,93.00
2019-05-18T05:37:36.666Z,93.20
2019-05-18T05:40:07.095Z,93.00
2019-05-18T05:42:36.438Z,93.00
2019-05-18T05:45:09.501Z,92.90
2019-05-18T05:47:38.776Z,92.90
2019-05-18T05:50:09.002Z,92.80
2019-05-18T05:52:38.358Z,92.80
2019-05-18T05:55:09.783Z,92.70
2019-05-18T05:57:39.063Z,92.60
2019-05-18T06:00:09.595Z,92.60
2019-05-18T06:02:38.868Z,92.50
2019-05-18T06:05:10.497Z,92.40
2019-05-18T06:07:39.959Z,92.40
2019-05-18T06:10:09.704Z,92.30
2019-05-18T06:12:38.975Z,92.20
2019-05-18T06:15:09.810Z,92.10
2019-05-18T06:17:39.458Z,92.00
2019-05-18T06:20:10.775Z,92.00
2019-05-18T06:22:40.070Z,91.90
2019-05-18T06:25:09.839Z,92.20
2019-05-18T06:27:39.191Z,91.80
2019-05-18T06:30:09.230Z,91.60
2019-05-18T06:32:38.515Z,91.60
2019-05-18T06:35:08.586Z,91.50
2019-05-18T06:37:37.902Z,91.50
2019-05-18T06:40:07.929Z,91.40
2019-05-18T06:42:37.286Z,91.30
2019-05-18T06:45:09.166Z,91.10
2019-05-18T06:47:38.468Z,90.90
2019-05-18T06:50:11.241Z,90.90
2019-05-18T06:52:39.288Z,90.70
2019-05-18T06:55:11.071Z,90.60
2019-05-18T06:57:41.395Z,90.50
2019-05-18T07:00:12.680Z,90.30
2019-05-18T07:02:41.971Z,90.20
2019-05-18T07:05:11.395Z,90.00
2019-05-18T07:07:40.960Z,90.00
2019-05-18T07:10:10.366Z,89.60
2019-05-18T07:12:39.671Z,89.60
2019-05-18T07:15:11.080Z,89.20
2019-05-18T07:17:40.371Z,88.80
2019-05-18T07:20:10.589Z,88.20
2019-05-18T07:22:40.246Z,87.60
2019-05-18T07:25:10.063Z,87.10
2019-05-18T07:27:39.350Z,86.80
2019-05-18T07:30:09.375Z,86.50
2019-05-18T07:32:38.662Z,86.40
2019-05-18T07:35:08.384Z,86.30
2019-05-18T07:37:37.676Z,87.10
2019-05-18T07:40:07.796Z,85.90
2019-05-18T07:42:37.151Z,85.90
2019-05-18T07:45:08.071Z,85.80
2019-05-18T07:47:37.542Z,85.90
2019-05-18T07:50:07.489Z,85.80
2019-05-18T07:52:36.779Z,85.80
2019-05-18T07:55:07.672Z,85.70
2019-05-18T07:57:36.980Z,85.10
2019-05-18T08:00:07.597Z,84.50
2019-05-18T08:02:36.882Z,84.10
2019-05-18T08:05:07.507Z,83.60
2019-05-18T08:07:36.809Z,83.20
2019-05-18T08:10:08.402Z,82.00
2019-05-18T08:12:37.712Z,81.70
2019-05-18T08:15:10.997Z,81.40
2019-05-18T08:17:40.270Z,80.70
2019-05-18T08:20:09.651Z,80.30
2019-05-18T08:22:38.998Z,79.80
2019-05-18T08:25:08.844Z,79.20
2019-05-18T08:27:38.124Z,78.90
2019-05-18T08:30:07.962Z,78.60
2019-05-18T08:32:37.245Z,78.30
2019-05-18T08:35:06.937Z,77.80
2019-05-18T08:37:36.212Z,77.40
2019-05-18T08:40:09.080Z,77.20
2019-05-18T08:42:38.974Z,76.90
2019-05-18T08:45:10.194Z,76.80
2019-05-18T08:47:39.471Z,76.70
2019-05-18T08:50:09.413Z,76.50
2019-05-18T08:52:38.683Z,76.70
2019-05-18T08:55:08.530Z,76.60
2019-05-18T08:57:37.809Z,76.20
2019-05-18T09:00:07.837Z,75.70
2019-05-18T09:02:37.138Z,75.40
2019-05-18T09:05:07.062Z,74.60
2019-05-18T09:07:36.336Z,75.00
2019-05-18T09:10:07.252Z,74.60
2019-05-18T09:12:36.539Z,74.50
2019-05-18T09:15:07.093Z,73.50
2019-05-18T09:17:36.369Z,73.10
2019-05-18T09:20:07.453Z,72.40
2019-05-18T09:22:36.798Z,72.90
2019-05-18T09:25:07.118Z,72.10
2019-05-18T09:27:36.402Z,71.90
2019-05-18T09:30:07.763Z,71.10
2019-05-18T09:32:37.122Z,70.00
2019-05-18T09:35:07.764Z,69.70
2019-05-18T09:37:37.063Z,69.90
2019-05-18T09:40:08.163Z,70.50
2019-05-18T09:42:37.443Z,70.80
2019-05-18T09:45:09.660Z,71.20
2019-05-18T09:47:39.919Z,70.90
2019-05-18T09:50:09.557Z,70.40
2019-05-18T09:52:46.494Z,69.70
2019-05-18T09:55:11.175Z,69.80
2019-05-18T09:57:40.456Z,70.00
2019-05-18T10:00:11.587Z,69.70
2019-05-18T10:02:40.884Z,70.00
2019-05-18T10:05:10.715Z,69.40
2019-05-18T10:07:39.992Z,69.10
2019-05-18T10:10:09.562Z,68.90
2019-05-18T10:12:38.912Z,68.00
2019-05-18T10:15:08.961Z,67.80
2019-05-18T10:17:38.233Z,67.80
2019-05-18T10:20:09.179Z,67.20
2019-05-18T10:22:51.179Z,66.60
2019-05-18T10:25:10.815Z,66.40
2019-05-18T10:27:40.090Z,66.30
2019-05-18T10:30:11.412Z,66.70
2019-05-18T10:32:40.707Z,66.20
2019-05-18T10:35:11.326Z,65.20
2019-05-18T10:37:40.619Z,65.00
2019-05-18T10:40:11.408Z,64.30
2019-05-18T10:42:40.731Z,63.70
2019-05-18T10:45:10.739Z,63.50
2019-05-18T10:47:40.032Z,63.40
2019-05-18T10:50:09.781Z,63.70
2019-05-18T10:52:40.090Z,63.40
2019-05-18T10:55:09.904Z,63.20
2019-05-18T10:57:39.188Z,63.00
2019-05-18T11:00:10.793Z,62.80
2019-05-18T11:02:40.143Z,62.00
2019-05-18T11:05:09.846Z,61.10
2019-05-18T11:07:39.204Z,60.00
2019-05-18T11:10:09.632Z,58.90
2019-05-18T11:12:38.983Z,59.00
2019-05-18T11:15:08.997Z,59.20
2019-05-18T11:17:38.288Z,58.40
2019-05-18T11:20:09.402Z,58.10
2019-05-18T11:22:38.718Z,58.00
2019-05-18T11:25:08.650Z,57.60
2019-05-18T11:27:37.939Z,57.10
2019-05-18T11:30:10.022Z,57.90
2019-05-18T11:32:39.578Z,57.90
2019-05-18T11:35:09.511Z,56.80
2019-05-18T11:37:38.791Z,56.60
2019-05-18T11:40:11.411Z,56.90
2019-05-18T11:42:40.764Z,56.70
2019-05-18T11:45:12.232Z,56.20
2019-05-18T11:47:41.618Z,55.70
2019-05-18T11:50:11.646Z,55.30
2019-05-18T11:52:40.933Z,54.20
2019-05-18T11:55:10.443Z,54.30
2019-05-18T11:57:39.752Z,53.70
2019-05-18T12:00:11.780Z,53.70
2019-05-18T12:02:41.103Z,52.70
2019-05-18T12:05:10.822Z,53.00
2019-05-18T12:07:40.108Z,52.50
2019-05-18T12:10:10.729Z,51.90
2019-05-18T12:12:40.020Z,51.70
2019-05-18T12:15:11.104Z,50.00
2019-05-18T12:17:40.386Z,50.20
2019-05-18T12:20:10.507Z,49.80
2019-05-18T12:22:39.855Z,49.70
2019-05-18T12:25:09.475Z,48.40
2019-05-18T12:27:38.855Z,48.60
2019-05-18T12:30:10.520Z,48.50
2019-05-18T12:32:39.807Z,47.60
2019-05-18T12:35:09.437Z,46.50
2019-05-18T12:37:38.896Z,46.80
2019-05-18T12:40:10.327Z,47.00
2019-05-18T12:42:39.707Z,47.40
2019-05-18T12:45:09.627Z,46.70
2019-05-18T12:47:38.983Z,46.90
2019-05-18T12:50:09.411Z,47.10
2019-05-18T12:52:38.698Z,46.70
2019-05-18T12:55:08.414Z,45.40
2019-05-18T12:57:37.855Z,44.80
2019-05-18T13:00:12.202Z,45.00
2019-05-18T13:02:41.610Z,44.50
2019-05-18T13:05:11.337Z,43.70
2019-05-18T13:07:40.613Z,42.50
2019-05-18T13:10:10.918Z,42.80
2019-05-18T13:12:40.256Z,43.70
2019-05-18T13:15:11.747Z,44.40
2019-05-18T13:17:41.091Z,43.90
2019-05-18T13:20:11.733Z,43.30
2019-05-18T13:22:41.064Z,44.00
2019-05-18T13:25:11.448Z,43.00
2019-05-18T13:27:40.868Z,42.80
2019-05-18T13:30:12.740Z,42.80
2019-05-18T13:32:42.041Z,43.40
2019-05-18T13:35:12.736Z,43.00
2019-05-18T13:37:42.013Z,42.40
2019-05-18T13:40:11.920Z,42.50
2019-05-18T13:42:41.314Z,42.90
2019-05-18T13:45:11.750Z,42.80
2019-05-18T13:47:41.996Z,43.10
2019-05-18T13:50:11.844Z,42.90
2019-05-18T13:52:41.122Z,43.20
2019-05-18T13:55:10.656Z,42.40
2019-05-18T13:57:39.935Z,40.60
2019-05-18T14:00:09.655Z,40.00
2019-05-18T14:02:38.937Z,39.10
2019-05-18T14:05:08.978Z,39.90
2019-05-18T14:07:38.252Z,40.10
2019-05-18T14:10:08.682Z,40.20
2019-05-18T14:12:38.148Z,39.40
2019-05-18T14:15:08.264Z,39.50
2019-05-18T14:17:37.531Z,40.10
2019-05-18T14:20:07.272Z,40.60
2019-05-18T14:22:36.583Z,40.40
2019-05-18T14:25:18.806Z,42.00
2019-05-18T14:27:39.154Z,41.60
2019-05-18T14:30:08.904Z,41.60
2019-05-18T14:32:38.199Z,41.00
2019-05-18T14:35:09.175Z,41.40
2019-05-18T14:37:38.472Z,42.00
2019-05-18T14:40:08.817Z,43.40
2019-05-18T14:42:38.098Z,43.10
2019-05-18T14:45:08.028Z,42.50
2019-05-18T14:47:37.419Z,42.00
2019-05-18T14:50:07.331Z,42.10
2019-05-18T14:52:36.847Z,41.80
2019-05-18T14:55:07.136Z,41.60
2019-05-18T14:57:36.449Z,40.90
2019-05-18T15:00:07.089Z,41.60
2019-05-18T15:02:36.428Z,42.30
2019-05-18T15:05:07.572Z,42.20
2019-05-18T15:07:37.948Z,42.30
2019-05-18T15:10:07.982Z,43.00
2019-05-18T15:12:37.277Z,43.00
2019-05-18T15:15:08.871Z,43.30
2019-05-18T15:17:38.176Z,43.50
2019-05-18T15:20:10.411Z,43.90
2019-05-18T15:22:39.793Z,46.20
2019-05-18T15:25:09.512Z,48.30
2019-05-18T15:27:38.872Z,49.80
2019-05-18T15:30:09.295Z,50.50
2019-05-18T15:32:38.600Z,50.40
2019-05-18T15:35:08.310Z,51.80
2019-05-18T15:37:39.238Z,53.80
2019-05-18T15:40:08.864Z,54.00
2019-05-18T15:42:38.172Z,53.50
2019-05-18T15:45:09.511Z,53.50
2019-05-18T15:47:38.791Z,53.60
2019-05-18T15:50:08.912Z,54.40
2019-05-18T15:52:38.272Z,53.60
2019-05-18T15:55:08.287Z,53.80
2019-05-18T15:57:37.591Z,53.40
2019-05-18T16:00:08.048Z,53.70
2019-05-18T16:02:37.343Z,53.20
2019-05-18T16:05:07.847Z,53.30
2019-05-18T16:07:37.155Z,53.50
2019-05-18T16:10:07.475Z,53.70
2019-05-18T16:12:36.813Z,54.30
2019-05-18T16:15:07.918Z,53.80
2019-05-18T16:17:39.928Z,53.40
2019-05-18T16:20:09.001Z,53.50
2019-05-18T16:22:38.383Z,53.30
2019-05-18T16:25:08.018Z,52.60
2019-05-18T16:27:37.419Z,52.50
2019-05-18T16:30:07.839Z,52.60
2019-05-18T16:32:37.139Z,52.70
2019-05-18T16:35:08.365Z,53.40
2019-05-18T16:37:37.665Z,54.60
2019-05-18T16:40:08.574Z,55.60
2019-05-18T16:42:37.866Z,55.80
2019-05-18T16:45:09.196Z,56.40
2019-05-18T16:47:38.536Z,56.80
2019-05-18T16:50:08.753Z,58.00
2019-05-18T16:52:38.045Z,56.70
2019-05-18T16:55:07.975Z,56.30
2019-05-18T16:57:37.292Z,57.50
2019-05-18T17:00:15.765Z,58.30
2019-05-18T17:02:43.507Z,59.30
2019-05-18T17:05:14.436Z,60.20
2019-05-18T17:07:43.881Z,60.50
2019-05-18T17:10:13.498Z,61.60
2019-05-18T17:12:43.567Z,61.80
2019-05-18T17:15:13.009Z,61.60
2019-05-18T17:17:43.311Z,61.30
2019-05-18T17:20:13.071Z,61.30
2019-05-18T17:22:42.415Z,61.70
2019-05-18T17:25:11.787Z,62.10
2019-05-18T17:27:41.146Z,62.40
2019-05-18T17:30:11.607Z,62.60
2019-05-18T17:32:40.931Z,62.70
2019-05-18T17:35:10.774Z,62.60
2019-05-18T17:37:40.047Z,63.40
2019-05-18T17:40:09.472Z,64.50
2019-05-18T17:42:38.796Z,65.70
2019-05-18T17:45:09.531Z,66.30
2019-05-18T17:47:38.808Z,66.80
2019-05-18T17:50:09.140Z,67.40
2019-05-18T17:52:39.589Z,67.80
2019-05-18T17:55:10.393Z,68.30
2019-05-18T17:57:39.679Z,68.80
2019-05-18T18:00:10.814Z,68.70
2019-05-18T18:02:40.403Z,69.30
2019-05-18T18:05:10.232Z,69.80
2019-05-18T18:07:39.522Z,69.80
2019-05-18T18:10:09.649Z,70.30
2019-05-18T18:12:38.997Z,70.70
2019-05-18T18:15:08.831Z,70.70
2019-05-18T18:17:38.269Z,71.10
2019-05-18T18:20:07.917Z,69.90
2019-05-18T18:22:37.171Z,69.60
2019-05-18T18:25:07.300Z,69.20
2019-05-18T18:27:36.651Z,68.80
2019-05-18T18:30:08.121Z,68.40
2019-05-18T18:32:37.434Z,68.30
2019-05-18T18:35:08.383Z,68.00
2019-05-18T18:37:37.664Z,67.90
2019-05-18T18:40:07.858Z,67.80
2019-05-18T18:42:37.305Z,67.80
2019-05-18T18:45:08.374Z,67.90
2019-05-18T18:47:37.785Z,68.10
2019-05-18T18:50:08.028Z,68.10
2019-05-18T18:52:37.382Z,68.10
2019-05-18T18:55:07.622Z,68.00
2019-05-18T18:57:41.114Z,67.90
2019-05-18T19:00:09.987Z,68.00
2019-05-18T19:02:39.557Z,68.10
2019-05-18T19:05:09.329Z,68.10
2019-05-18T19:07:38.649Z,68.00
2019-05-18T19:10:09.387Z,68.20
2019-05-18T19:12:38.758Z,68.30
2019-05-18T19:15:09.003Z,68.50
2019-05-18T19:17:38.356Z,68.80
2019-05-18T19:20:08.330Z,68.90
2019-05-18T19:22:37.640Z,69.20
2019-05-18T19:25:07.661Z,69.30
2019-05-18T19:27:36.970Z,69.60
2019-05-18T19:30:09.944Z,69.80
2019-05-18T19:32:38.805Z,70.20
2019-05-18T19:35:08.627Z,70.50
2019-05-18T19:37:37.954Z,70.60
2019-05-18T19:40:08.536Z,70.40
2019-05-18T19:42:37.820Z,70.60
2019-05-18T19:45:07.856Z,70.80
2019-05-18T19:47:37.165Z,71.20
2019-05-18T19:50:07.470Z,71.50
2019-05-18T19:52:37.433Z,72.10
2019-05-18T19:55:07.586Z,72.90
2019-05-18T19:57:36.883Z,73.50
2019-05-18T20:00:10.325Z,74.30
2019-05-18T20:02:39.913Z,74.40
2019-05-18T20:05:09.746Z,74.60
2019-05-18T20:07:39.270Z,74.60
2019-05-18T20:10:11.868Z,75.10
2019-05-18T20:12:41.152Z,74.90
2019-05-18T20:15:11.143Z,75.90
2019-05-18T20:17:40.501Z,77.00
2019-05-18T20:20:10.501Z,78.10
2019-05-18T20:22:39.796Z,79.20
2019-05-18T20:25:09.502Z,80.20
2019-05-18T20:27:38.824Z,81.30
2019-05-18T20:30:09.945Z,82.30
2019-05-18T20:32:40.459Z,83.30
2019-05-18T20:35:10.181Z,84.10
2019-05-18T20:37:40.458Z,84.90
2019-05-18T20:40:10.271Z,85.60
2019-05-18T20:42:39.626Z,85.90
2019-05-18T20:45:09.743Z,86.30
2019-05-18T20:47:39.048Z,87.00
2019-05-18T20:50:08.668Z,87.60
2019-05-18T20:52:37.981Z,88.40
2019-05-18T20:55:07.782Z,89.00
2019-05-18T20:57:37.138Z,89.40
2019-05-18T21:00:07.482Z,90.00
2019-05-18T21:02:38.453Z,90.00
2019-05-18T21:05:07.980Z,90.10
2019-05-18T21:07:37.267Z,90.30
2019-05-18T21:10:10.019Z,90.40
2019-05-18T21:12:39.374Z,90.50
2019-05-18T21:15:09.412Z,90.60
2019-05-18T21:17:38.731Z,90.80
2019-05-18T21:20:08.250Z,90.90
2019-05-18T21:22:37.616Z,91.00
2019-05-18T21:25:07.157Z,91.20
2019-05-18T21:27:36.439Z,91.40
2019-05-18T21:30:06.886Z,91.30
2019-05-18T21:32:36.540Z,91.40
2019-05-18T21:35:07.103Z,91.60
2019-05-18T21:37:36.391Z,91.70
2019-05-18T21:40:06.612Z,91.90
2019-05-18T21:42:35.955Z,92.00
2019-05-18T21:45:06.883Z,92.20
2019-05-18T21:47:36.183Z,92.20
2019-05-18T21:50:06.795Z,92.40
2019-05-18T21:52:36.146Z,92.60
2019-05-18T21:55:07.187Z,92.70
2019-05-18T21:57:36.481Z,92.80
2019-05-18T22:00:07.150Z,92.90
2019-05-18T22:02:38.167Z,92.90
2019-05-18T22:05:07.615Z,93.00
2019-05-18T22:07:36.905Z,93.40
2019-05-18T22:10:08.751Z,93.20
2019-05-18T22:12:38.066Z,93.30
2019-05-18T22:15:07.795Z,93.30
2019-05-18T22:17:55.177Z,93.30
2019-05-18T22:20:25.458Z,93.20
2019-05-18T22:22:54.723Z,93.10
2019-05-18T22:25:24.009Z,93.00
2019-05-18T22:27:53.287Z,93.00
2019-05-18T22:30:22.590Z,93.00
2019-05-18T22:32:51.871Z,93.00
2019-05-18T22:35:21.159Z,93.40
2019-05-18T22:37:50.476Z,93.10
2019-05-18T22:40:19.739Z,93.20
2019-05-18T22:42:49.026Z,93.20
2019-05-18T22:45:18.299Z,93.00
2019-05-18T22:47:47.591Z,93.00
2019-05-18T22:50:17.333Z,93.10
2019-05-18T22:52:46.677Z,93.10
2019-05-18T22:55:16.039Z,93.10
2019-05-18T22:57:45.412Z,93.10
2019-05-18T23:00:16.027Z,93.10
2019-05-18T23:02:45.400Z,93.20
2019-05-18T23:05:14.716Z,93.20
2019-05-18T23:07:44.014Z,93.20
2019-05-18T23:10:14.970Z,93.10
2019-05-18T23:12:44.265Z,93.10
2019-05-18T23:15:13.734Z,93.10
2019-05-18T23:17:43.042Z,93.10
2019-05-18T23:20:12.476Z,93.10
2019-05-18T23:22:41.786Z,93.10
2019-05-18T23:25:11.325Z,93.10
2019-05-18T23:27:40.600Z,93.20
2019-05-18T23:30:10.940Z,93.30
2019-05-18T23:32:40.218Z,93.30
2019-05-18T23:35:09.638Z,93.40
2019-05-18T23:37:38.939Z,93.30
2019-05-18T23:40:08.369Z,93.40
2019-05-18T23:42:37.665Z,93.70
2019-05-18T23:45:07.808Z,93.40
2019-05-18T23:47:37.104Z,93.50
2019-05-18T23:50:07.123Z,93.50
2019-05-18T23:52:36.421Z,93.50
2019-05-18T23:55:06.746Z,93.50
2019-05-18T23:57:36.087Z,93.60
